sensor_id;sensor_type;location;lat;lon;timestamp;P1;durP1;ratioP1;P2;durP2;ratioP2
53503;SDS011;39387;50.998;22.340;2022-07-21T00:02:49;10.02;;;4.80;;
53503;SDS011;39387;50.998;22.340;2022-07-21T00:05:17;6.50;;;4.63;;
53503;SDS011;39387;50.998;22.340;2022-07-21T00:07:45;6.53;;;4.32;;
53503;SDS011;39387;50.998;22.340;2022-07-21T00:10:13;8.77;;;4.47;;
53503;SDS011;39387;50.998;22.340;2022-07-21T00:12:42;5.50;;;4.32;;
53503;SDS011;39387;50.998;22.340;2022-07-21T00:15:10;6.60;;;4.75;;
53503;SDS011;39387;50.998;22.340;2022-07-21T00:17:38;6.75;;;4.57;;
53503;SDS011;39387;50.998;22.340;2022-07-21T00:20:06;6.63;;;4.88;;
53503;SDS011;39387;50.998;22.340;2022-07-21T00:22:35;5.25;;;4.28;;
53503;SDS011;39387;50.998;22.340;2022-07-21T00:25:03;6.22;;;4.35;;
53503;SDS011;39387;50.998;22.340;2022-07-21T00:27:31;6.55;;;4.38;;
53503;SDS011;39387;50.998;22.340;2022-07-21T00:29:59;6.43;;;4.53;;
53503;SDS011;39387;50.998;22.340;2022-07-21T00:32:27;5.95;;;4.03;;
53503;SDS011;39387;50.998;22.340;2022-07-21T00:34:55;7.10;;;4.45;;
53503;SDS011;39387;50.998;22.340;2022-07-21T00:37:22;6.00;;;3.92;;
53503;SDS011;39387;50.998;22.340;2022-07-21T00:39:50;6.35;;;4.72;;
53503;SDS011;39387;50.998;22.340;2022-07-21T00:42:21;5.47;;;4.20;;
53503;SDS011;39387;50.998;22.340;2022-07-21T00:44:48;7.80;;;4.82;;
53503;SDS011;39387;50.998;22.340;2022-07-21T00:47:19;7.30;;;4.70;;
53503;SDS011;39387;50.998;22.340;2022-07-21T00:49:47;6.18;;;4.30;;
53503;SDS011;39387;50.998;22.340;2022-07-21T00:52:14;6.25;;;4.68;;
53503;SDS011;39387;50.998;22.340;2022-07-21T00:54:42;5.93;;;4.53;;
53503;SDS011;39387;50.998;22.340;2022-07-21T00:57:10;7.68;;;4.47;;
53503;SDS011;39387;50.998;22.340;2022-07-21T00:59:39;6.47;;;4.45;;
53503;SDS011;39387;50.998;22.340;2022-07-21T01:02:07;6.10;;;4.47;;
53503;SDS011;39387;50.998;22.340;2022-07-21T01:04:36;7.00;;;5.10;;
53503;SDS011;39387;50.998;22.340;2022-07-21T01:07:05;6.30;;;4.07;;
53503;SDS011;39387;50.998;22.340;2022-07-21T01:09:33;6.63;;;4.32;;
53503;SDS011;39387;50.998;22.340;2022-07-21T01:12:01;6.80;;;4.47;;
53503;SDS011;39387;50.998;22.340;2022-07-21T01:14:29;6.60;;;4.63;;
53503;SDS011;39387;50.998;22.340;2022-07-21T01:16:57;8.30;;;4.88;;
53503;SDS011;39387;50.998;22.340;2022-07-21T01:19:24;10.63;;;4.95;;
53503;SDS011;39387;50.998;22.340;2022-07-21T01:21:53;7.72;;;5.05;;
53503;SDS011;39387;50.998;22.340;2022-07-21T01:24:21;6.43;;;4.53;;
53503;SDS011;39387;50.998;22.340;2022-07-21T01:26:49;8.85;;;4.78;;
53503;SDS011;39387;50.998;22.340;2022-07-21T01:29:18;8.77;;;4.53;;
53503;SDS011;39387;50.998;22.340;2022-07-21T01:31:46;6.50;;;4.50;;
53503;SDS011;39387;50.998;22.340;2022-07-21T01:34:15;5.72;;;4.50;;
53503;SDS011;39387;50.998;22.340;2022-07-21T01:36:43;6.32;;;4.20;;
53503;SDS011;39387;50.998;22.340;2022-07-21T01:39:12;6.97;;;4.45;;
53503;SDS011;39387;50.998;22.340;2022-07-21T01:41:57;6.57;;;4.63;;
53503;SDS011;39387;50.998;22.340;2022-07-21T01:44:24;6.97;;;4.53;;
53503;SDS011;39387;50.998;22.340;2022-07-21T01:46:51;6.80;;;4.65;;
53503;SDS011;39387;50.998;22.340;2022-07-21T01:49:19;8.00;;;4.60;;
53503;SDS011;39387;50.998;22.340;2022-07-21T01:51:47;6.82;;;4.32;;
53503;SDS011;39387;50.998;22.340;2022-07-21T01:54:16;6.47;;;4.30;;
53503;SDS011;39387;50.998;22.340;2022-07-21T01:56:44;6.05;;;3.95;;
53503;SDS011;39387;50.998;22.340;2022-07-21T01:59:11;6.05;;;4.40;;
53503;SDS011;39387;50.998;22.340;2022-07-21T02:01:38;7.53;;;4.18;;
53503;SDS011;39387;50.998;22.340;2022-07-21T02:04:06;6.15;;;4.40;;
53503;SDS011;39387;50.998;22.340;2022-07-21T02:06:33;7.43;;;5.10;;
53503;SDS011;39387;50.998;22.340;2022-07-21T02:09:01;6.55;;;4.55;;
53503;SDS011;39387;50.998;22.340;2022-07-21T02:11:30;6.65;;;4.00;;
53503;SDS011;39387;50.998;22.340;2022-07-21T02:13:58;6.47;;;4.50;;
53503;SDS011;39387;50.998;22.340;2022-07-21T02:16:25;6.65;;;4.63;;
53503;SDS011;39387;50.998;22.340;2022-07-21T02:18:52;7.20;;;4.65;;
53503;SDS011;39387;50.998;22.340;2022-07-21T02:21:19;4.88;;;3.70;;
53503;SDS011;39387;50.998;22.340;2022-07-21T02:23:47;5.68;;;4.35;;
53503;SDS011;39387;50.998;22.340;2022-07-21T02:26:14;5.72;;;4.50;;
53503;SDS011;39387;50.998;22.340;2022-07-21T02:28:43;5.70;;;4.20;;
53503;SDS011;39387;50.998;22.340;2022-07-21T02:31:10;5.28;;;3.97;;
53503;SDS011;39387;50.998;22.340;2022-07-21T02:33:38;5.60;;;4.00;;
53503;SDS011;39387;50.998;22.340;2022-07-21T02:36:06;6.82;;;4.20;;
53503;SDS011;39387;50.998;22.340;2022-07-21T02:38:34;7.30;;;4.30;;
53503;SDS011;39387;50.998;22.340;2022-07-21T02:41:01;6.03;;;4.10;;
53503;SDS011;39387;50.998;22.340;2022-07-21T02:43:29;6.63;;;4.00;;
53503;SDS011;39387;50.998;22.340;2022-07-21T02:45:58;4.63;;;3.53;;
53503;SDS011;39387;50.998;22.340;2022-07-21T02:48:25;7.07;;;4.10;;
53503;SDS011;39387;50.998;22.340;2022-07-21T02:50:53;5.85;;;4.00;;
53503;SDS011;39387;50.998;22.340;2022-07-21T02:53:20;5.63;;;3.58;;
53503;SDS011;39387;50.998;22.340;2022-07-21T02:55:49;6.47;;;4.22;;
53503;SDS011;39387;50.998;22.340;2022-07-21T02:58:18;6.47;;;4.35;;
53503;SDS011;39387;50.998;22.340;2022-07-21T03:00:48;7.85;;;3.83;;
53503;SDS011;39387;50.998;22.340;2022-07-21T03:03:18;4.68;;;4.00;;
53503;SDS011;39387;50.998;22.340;2022-07-21T03:05:47;7.25;;;4.40;;
53503;SDS011;39387;50.998;22.340;2022-07-21T03:08:14;7.18;;;4.22;;
53503;SDS011;39387;50.998;22.340;2022-07-21T03:10:42;6.07;;;4.53;;
53503;SDS011;39387;50.998;22.340;2022-07-21T03:13:10;7.63;;;4.35;;
53503;SDS011;39387;50.998;22.340;2022-07-21T03:15:37;7.18;;;5.18;;
53503;SDS011;39387;50.998;22.340;2022-07-21T03:18:05;5.90;;;4.20;;
53503;SDS011;39387;50.998;22.340;2022-07-21T03:20:35;5.47;;;3.55;;
53503;SDS011;39387;50.998;22.340;2022-07-21T03:25:31;6.88;;;3.67;;
53503;SDS011;39387;50.998;22.340;2022-07-21T03:27:59;6.43;;;4.45;;
53503;SDS011;39387;50.998;22.340;2022-07-21T03:30:26;6.07;;;3.95;;
53503;SDS011;39387;50.998;22.340;2022-07-21T03:32:54;7.70;;;4.15;;
53503;SDS011;39387;50.998;22.340;2022-07-21T03:35:22;5.88;;;4.20;;
53503;SDS011;39387;50.998;22.340;2022-07-21T03:37:51;6.75;;;4.38;;
53503;SDS011;39387;50.998;22.340;2022-07-21T03:40:20;5.75;;;4.20;;
53503;SDS011;39387;50.998;22.340;2022-07-21T03:42:49;5.50;;;4.15;;
53503;SDS011;39387;50.998;22.340;2022-07-21T03:45:17;6.18;;;4.18;;
53503;SDS011;39387;50.998;22.340;2022-07-21T03:47:45;5.93;;;4.10;;
53503;SDS011;39387;50.998;22.340;2022-07-21T03:50:12;7.13;;;4.78;;
53503;SDS011;39387;50.998;22.340;2022-07-21T03:52:40;5.95;;;4.45;;
53503;SDS011;39387;50.998;22.340;2022-07-21T03:55:09;5.10;;;4.05;;
53503;SDS011;39387;50.998;22.340;2022-07-21T03:57:41;7.70;;;4.65;;
53503;SDS011;39387;50.998;22.340;2022-07-21T04:00:12;6.85;;;4.35;;
53503;SDS011;39387;50.998;22.340;2022-07-21T04:02:40;6.72;;;4.53;;
53503;SDS011;39387;50.998;22.340;2022-07-21T04:05:09;7.60;;;4.43;;
53503;SDS011;39387;50.998;22.340;2022-07-21T04:07:38;8.00;;;4.43;;
53503;SDS011;39387;50.998;22.340;2022-07-21T04:10:06;7.95;;;4.70;;
53503;SDS011;39387;50.998;22.340;2022-07-21T04:12:35;7.97;;;4.35;;
53503;SDS011;39387;50.998;22.340;2022-07-21T04:15:04;5.82;;;4.10;;
53503;SDS011;39387;50.998;22.340;2022-07-21T04:17:32;6.18;;;4.47;;
53503;SDS011;39387;50.998;22.340;2022-07-21T04:19:59;7.57;;;5.10;;
53503;SDS011;39387;50.998;22.340;2022-07-21T04:22:27;7.50;;;5.30;;
53503;SDS011;39387;50.998;22.340;2022-07-21T04:24:54;7.82;;;5.25;;
53503;SDS011;39387;50.998;22.340;2022-07-21T04:27:21;6.53;;;5.60;;
53503;SDS011;39387;50.998;22.340;2022-07-21T04:29:50;8.93;;;5.60;;
53503;SDS011;39387;50.998;22.340;2022-07-21T04:32:17;11.70;;;7.28;;
53503;SDS011;39387;50.998;22.340;2022-07-21T04:34:45;22.23;;;10.35;;
53503;SDS011;39387;50.998;22.340;2022-07-21T04:37:12;23.10;;;12.63;;
53503;SDS011;39387;50.998;22.340;2022-07-21T04:39:40;9.93;;;7.38;;
53503;SDS011;39387;50.998;22.340;2022-07-21T04:42:07;4.60;;;4.18;;
53503;SDS011;39387;50.998;22.340;2022-07-21T04:44:35;10.23;;;3.58;;
53503;SDS011;39387;50.998;22.340;2022-07-21T04:47:03;5.68;;;3.47;;
53503;SDS011;39387;50.998;22.340;2022-07-21T04:49:31;3.83;;;3.42;;
53503;SDS011;39387;50.998;22.340;2022-07-21T04:51:58;7.05;;;3.78;;
53503;SDS011;39387;50.998;22.340;2022-07-21T04:54:26;5.72;;;3.78;;
53503;SDS011;39387;50.998;22.340;2022-07-21T04:56:53;5.80;;;3.30;;
53503;SDS011;39387;50.998;22.340;2022-07-21T04:59:21;4.75;;;3.50;;
53503;SDS011;39387;50.998;22.340;2022-07-21T05:01:48;4.30;;;3.72;;
53503;SDS011;39387;50.998;22.340;2022-07-21T05:04:17;4.28;;;3.45;;
53503;SDS011;39387;50.998;22.340;2022-07-21T05:06:45;5.68;;;3.70;;
53503;SDS011;39387;50.998;22.340;2022-07-21T05:09:12;3.33;;;3.03;;
53503;SDS011;39387;50.998;22.340;2022-07-21T05:11:39;4.60;;;2.95;;
53503;SDS011;39387;50.998;22.340;2022-07-21T05:14:07;3.65;;;2.50;;
53503;SDS011;39387;50.998;22.340;2022-07-21T05:16:34;4.50;;;2.85;;
53503;SDS011;39387;50.998;22.340;2022-07-21T05:19:01;3.13;;;2.05;;
53503;SDS011;39387;50.998;22.340;2022-07-21T05:21:30;2.80;;;2.50;;
53503;SDS011;39387;50.998;22.340;2022-07-21T05:23:57;3.25;;;2.42;;
53503;SDS011;39387;50.998;22.340;2022-07-21T05:26:25;2.80;;;1.80;;
53503;SDS011;39387;50.998;22.340;2022-07-21T05:28:52;2.30;;;1.65;;
53503;SDS011;39387;50.998;22.340;2022-07-21T05:31:20;3.35;;;1.75;;
53503;SDS011;39387;50.998;22.340;2022-07-21T05:33:47;2.65;;;1.77;;
53503;SDS011;39387;50.998;22.340;2022-07-21T05:36:15;2.92;;;1.63;;
53503;SDS011;39387;50.998;22.340;2022-07-21T05:38:45;1.60;;;1.50;;
53503;SDS011;39387;50.998;22.340;2022-07-21T05:41:13;2.03;;;1.38;;
53503;SDS011;39387;50.998;22.340;2022-07-21T05:43:40;2.65;;;1.60;;
53503;SDS011;39387;50.998;22.340;2022-07-21T05:46:08;1.50;;;1.40;;
53503;SDS011;39387;50.998;22.340;2022-07-21T05:48:35;1.35;;;1.25;;
53503;SDS011;39387;50.998;22.340;2022-07-21T05:51:02;1.70;;;1.20;;
53503;SDS011;39387;50.998;22.340;2022-07-21T05:53:30;1.75;;;1.42;;
53503;SDS011;39387;50.998;22.340;2022-07-21T05:55:58;1.95;;;1.50;;
53503;SDS011;39387;50.998;22.340;2022-07-21T05:58:26;1.58;;;1.25;;
53503;SDS011;39387;50.998;22.340;2022-07-21T06:00:54;1.73;;;1.05;;
53503;SDS011;39387;50.998;22.340;2022-07-21T06:03:38;1.45;;;1.00;;
53503;SDS011;39387;50.998;22.340;2022-07-21T06:06:07;2.08;;;1.08;;
53503;SDS011;39387;50.998;22.340;2022-07-21T06:08:36;1.60;;;1.05;;
53503;SDS011;39387;50.998;22.340;2022-07-21T06:11:06;2.72;;;1.10;;
53503;SDS011;39387;50.998;22.340;2022-07-21T06:13:33;1.77;;;1.17;;
53503;SDS011;39387;50.998;22.340;2022-07-21T06:16:01;0.80;;;0.80;;
53503;SDS011;39387;50.998;22.340;2022-07-21T06:18:28;1.70;;;0.95;;
53503;SDS011;39387;50.998;22.340;2022-07-21T06:20:56;1.52;;;0.82;;
53503;SDS011;39387;50.998;22.340;2022-07-21T06:23:26;2.13;;;0.80;;
53503;SDS011;39387;50.998;22.340;2022-07-21T06:25:54;1.70;;;0.93;;
53503;SDS011;39387;50.998;22.340;2022-07-21T06:28:24;0.80;;;0.80;;
53503;SDS011;39387;50.998;22.340;2022-07-21T06:30:51;0.90;;;0.75;;
53503;SDS011;39387;50.998;22.340;2022-07-21T06:33:20;2.35;;;0.95;;
53503;SDS011;39387;50.998;22.340;2022-07-21T06:35:48;1.25;;;1.00;;
53503;SDS011;39387;50.998;22.340;2022-07-21T06:38:15;1.15;;;1.00;;
53503;SDS011;39387;50.998;22.340;2022-07-21T06:40:43;1.33;;;1.00;;
53503;SDS011;39387;50.998;22.340;2022-07-21T06:43:10;1.30;;;1.08;;
53503;SDS011;39387;50.998;22.340;2022-07-21T06:45:40;3.42;;;1.17;;
53503;SDS011;39387;50.998;22.340;2022-07-21T06:48:07;1.30;;;0.95;;
53503;SDS011;39387;50.998;22.340;2022-07-21T06:50:35;1.25;;;1.00;;
53503;SDS011;39387;50.998;22.340;2022-07-21T06:53:03;1.33;;;1.10;;
53503;SDS011;39387;50.998;22.340;2022-07-21T06:55:31;1.00;;;0.80;;
53503;SDS011;39387;50.998;22.340;2022-07-21T06:58:07;1.80;;;1.00;;
53503;SDS011;39387;50.998;22.340;2022-07-21T07:00:35;1.08;;;0.88;;
53503;SDS011;39387;50.998;22.340;2022-07-21T07:03:04;2.20;;;1.17;;
53503;SDS011;39387;50.998;22.340;2022-07-21T07:05:31;1.05;;;0.95;;
53503;SDS011;39387;50.998;22.340;2022-07-21T07:07:59;1.20;;;1.10;;
53503;SDS011;39387;50.998;22.340;2022-07-21T07:10:27;3.42;;;1.00;;
53503;SDS011;39387;50.998;22.340;2022-07-21T07:12:54;1.15;;;1.00;;
53503;SDS011;39387;50.998;22.340;2022-07-21T07:15:22;1.42;;;0.90;;
53503;SDS011;39387;50.998;22.340;2022-07-21T07:17:50;2.53;;;1.13;;
53503;SDS011;39387;50.998;22.340;2022-07-21T07:20:19;1.25;;;0.90;;
53503;SDS011;39387;50.998;22.340;2022-07-21T07:22:46;1.42;;;1.08;;
53503;SDS011;39387;50.998;22.340;2022-07-21T07:25:13;1.48;;;1.08;;
53503;SDS011;39387;50.998;22.340;2022-07-21T07:27:42;1.20;;;1.00;;
53503;SDS011;39387;50.998;22.340;2022-07-21T07:30:10;1.63;;;1.05;;
53503;SDS011;39387;50.998;22.340;2022-07-21T07:32:38;1.42;;;1.00;;
53503;SDS011;39387;50.998;22.340;2022-07-21T07:35:06;1.40;;;1.00;;
53503;SDS011;39387;50.998;22.340;2022-07-21T07:37:36;1.02;;;0.93;;
53503;SDS011;39387;50.998;22.340;2022-07-21T07:40:04;1.45;;;1.10;;
53503;SDS011;39387;50.998;22.340;2022-07-21T07:42:32;2.05;;;1.10;;
53503;SDS011;39387;50.998;22.340;2022-07-21T07:45:00;1.05;;;0.95;;
53503;SDS011;39387;50.998;22.340;2022-07-21T07:47:27;2.25;;;1.00;;
53503;SDS011;39387;50.998;22.340;2022-07-21T07:49:55;1.05;;;0.80;;
53503;SDS011;39387;50.998;22.340;2022-07-21T07:52:23;1.13;;;0.80;;
53503;SDS011;39387;50.998;22.340;2022-07-21T07:54:51;1.00;;;0.90;;
53503;SDS011;39387;50.998;22.340;2022-07-21T07:57:19;0.80;;;0.80;;
53503;SDS011;39387;50.998;22.340;2022-07-21T07:59:46;1.35;;;0.90;;
53503;SDS011;39387;50.998;22.340;2022-07-21T08:02:13;1.67;;;0.80;;
53503;SDS011;39387;50.998;22.340;2022-07-21T08:04:41;1.90;;;1.10;;
53503;SDS011;39387;50.998;22.340;2022-07-21T08:07:08;2.38;;;1.25;;
53503;SDS011;39387;50.998;22.340;2022-07-21T08:09:35;0.90;;;0.90;;
53503;SDS011;39387;50.998;22.340;2022-07-21T08:12:04;0.98;;;0.70;;
53503;SDS011;39387;50.998;22.340;2022-07-21T08:14:32;1.25;;;1.00;;
53503;SDS011;39387;50.998;22.340;2022-07-21T08:16:59;1.88;;;0.98;;
53503;SDS011;39387;50.998;22.340;2022-07-21T08:19:26;0.90;;;0.90;;
53503;SDS011;39387;50.998;22.340;2022-07-21T08:21:54;1.10;;;1.00;;
53503;SDS011;39387;50.998;22.340;2022-07-21T08:24:21;1.08;;;0.95;;
53503;SDS011;39387;50.998;22.340;2022-07-21T08:26:49;0.90;;;0.90;;
53503;SDS011;39387;50.998;22.340;2022-07-21T08:29:18;1.13;;;0.90;;
53503;SDS011;39387;50.998;22.340;2022-07-21T08:31:45;0.88;;;0.88;;
53503;SDS011;39387;50.998;22.340;2022-07-21T08:34:12;1.23;;;1.00;;
53503;SDS011;39387;50.998;22.340;2022-07-21T08:36:40;1.80;;;0.90;;
53503;SDS011;39387;50.998;22.340;2022-07-21T08:39:07;1.77;;;0.90;;
53503;SDS011;39387;50.998;22.340;2022-07-21T08:41:34;1.00;;;0.90;;
53503;SDS011;39387;50.998;22.340;2022-07-21T08:44:02;2.88;;;1.10;;
53503;SDS011;39387;50.998;22.340;2022-07-21T08:46:31;1.08;;;0.80;;
53503;SDS011;39387;50.998;22.340;2022-07-21T08:49:00;0.80;;;0.80;;
53503;SDS011;39387;50.998;22.340;2022-07-21T08:51:31;1.05;;;0.70;;
53503;SDS011;39387;50.998;22.340;2022-07-21T08:53:59;1.95;;;1.00;;
53503;SDS011;39387;50.998;22.340;2022-07-21T08:56:26;1.48;;;0.93;;
53503;SDS011;39387;50.998;22.340;2022-07-21T08:58:54;0.95;;;0.93;;
53503;SDS011;39387;50.998;22.340;2022-07-21T09:01:22;1.25;;;0.93;;
53503;SDS011;39387;50.998;22.340;2022-07-21T09:03:51;1.40;;;0.98;;
53503;SDS011;39387;50.998;22.340;2022-07-21T09:06:19;0.90;;;0.90;;
53503;SDS011;39387;50.998;22.340;2022-07-21T09:08:47;1.65;;;0.90;;
53503;SDS011;39387;50.998;22.340;2022-07-21T09:11:17;1.55;;;0.73;;
53503;SDS011;39387;50.998;22.340;2022-07-21T09:13:46;1.20;;;0.98;;
53503;SDS011;39387;50.998;22.340;2022-07-21T09:16:31;0.98;;;0.88;;
53503;SDS011;39387;50.998;22.340;2022-07-21T09:19:02;0.88;;;0.88;;
53503;SDS011;39387;50.998;22.340;2022-07-21T09:21:30;1.00;;;0.90;;
53503;SDS011;39387;50.998;22.340;2022-07-21T09:24:20;1.08;;;0.85;;
53503;SDS011;39387;50.998;22.340;2022-07-21T09:29:44;0.95;;;0.85;;
53503;SDS011;39387;50.998;22.340;2022-07-21T09:32:17;1.00;;;0.90;;
53503;SDS011;39387;50.998;22.340;2022-07-21T09:34:49;1.20;;;0.80;;
53503;SDS011;39387;50.998;22.340;2022-07-21T09:37:17;1.00;;;0.90;;
53503;SDS011;39387;50.998;22.340;2022-07-21T09:39:46;1.55;;;0.85;;
53503;SDS011;39387;50.998;22.340;2022-07-21T09:42:16;1.05;;;0.95;;
53503;SDS011;39387;50.998;22.340;2022-07-21T09:44:45;1.65;;;1.10;;
53503;SDS011;39387;50.998;22.340;2022-07-21T09:47:16;1.05;;;0.82;;
53503;SDS011;39387;50.998;22.340;2022-07-21T09:49:45;1.13;;;0.90;;
53503;SDS011;39387;50.998;22.340;2022-07-21T09:52:21;1.75;;;1.20;;
53503;SDS011;39387;50.998;22.340;2022-07-21T09:54:49;1.02;;;0.93;;
53503;SDS011;39387;50.998;22.340;2022-07-21T09:57:18;1.83;;;1.00;;
53503;SDS011;39387;50.998;22.340;2022-07-21T09:59:46;1.25;;;1.00;;
53503;SDS011;39387;50.998;22.340;2022-07-21T10:02:15;1.00;;;0.90;;
53503;SDS011;39387;50.998;22.340;2022-07-21T10:04:46;1.20;;;0.70;;
53503;SDS011;39387;50.998;22.340;2022-07-21T10:07:15;0.98;;;0.90;;
53503;SDS011;39387;50.998;22.340;2022-07-21T10:09:44;0.90;;;0.80;;
53503;SDS011;39387;50.998;22.340;2022-07-21T10:12:12;0.98;;;0.82;;
53503;SDS011;39387;50.998;22.340;2022-07-21T10:14:39;1.00;;;0.90;;
53503;SDS011;39387;50.998;22.340;2022-07-21T10:17:06;1.85;;;0.90;;
53503;SDS011;39387;50.998;22.340;2022-07-21T10:19:36;0.80;;;0.80;;
53503;SDS011;39387;50.998;22.340;2022-07-21T10:22:08;1.60;;;1.00;;
53503;SDS011;39387;50.998;22.340;2022-07-21T10:24:39;1.33;;;0.90;;
53503;SDS011;39387;50.998;22.340;2022-07-21T10:27:08;2.00;;;0.88;;
53503;SDS011;39387;50.998;22.340;2022-07-21T10:29:53;1.30;;;0.90;;
53503;SDS011;39387;50.998;22.340;2022-07-21T10:32:24;1.55;;;1.00;;
53503;SDS011;39387;50.998;22.340;2022-07-21T10:34:53;2.73;;;1.00;;
53503;SDS011;39387;50.998;22.340;2022-07-21T10:49:04;1.83;;;1.02;;
53503;SDS011;39387;50.998;22.340;2022-07-21T10:51:33;1.00;;;0.90;;
53503;SDS011;39387;50.998;22.340;2022-07-21T10:54:17;1.45;;;1.23;;
53503;SDS011;39387;50.998;22.340;2022-07-21T10:56:48;1.75;;;0.95;;
53503;SDS011;39387;50.998;22.340;2022-07-21T10:59:17;2.10;;;1.13;;
53503;SDS011;39387;50.998;22.340;2022-07-21T11:01:44;1.50;;;1.15;;
53503;SDS011;39387;50.998;22.340;2022-07-21T11:04:12;1.17;;;0.98;;
53503;SDS011;39387;50.998;22.340;2022-07-21T11:09:12;1.85;;;1.20;;
53503;SDS011;39387;50.998;22.340;2022-07-21T11:11:56;1.33;;;0.93;;
53503;SDS011;39387;50.998;22.340;2022-07-21T11:14:36;1.05;;;0.90;;
53503;SDS011;39387;50.998;22.340;2022-07-21T11:17:04;0.90;;;0.90;;
53503;SDS011;39387;50.998;22.340;2022-07-21T11:19:36;1.65;;;1.00;;
53503;SDS011;39387;50.998;22.340;2022-07-21T11:22:09;1.10;;;1.00;;
53503;SDS011;39387;50.998;22.340;2022-07-21T11:24:38;1.30;;;1.20;;
53503;SDS011;39387;50.998;22.340;2022-07-21T11:27:07;1.92;;;1.10;;
53503;SDS011;39387;50.998;22.340;2022-07-21T11:29:38;1.70;;;0.80;;
53503;SDS011;39387;50.998;22.340;2022-07-21T11:32:06;0.90;;;0.90;;
53503;SDS011;39387;50.998;22.340;2022-07-21T11:34:41;1.60;;;1.00;;
53503;SDS011;39387;50.998;22.340;2022-07-21T11:37:11;1.02;;;0.90;;
53503;SDS011;39387;50.998;22.340;2022-07-21T11:39:39;2.67;;;0.90;;
53503;SDS011;39387;50.998;22.340;2022-07-21T11:42:09;0.70;;;0.70;;
53503;SDS011;39387;50.998;22.340;2022-07-21T11:44:40;1.10;;;1.05;;
53503;SDS011;39387;50.998;22.340;2022-07-21T11:47:09;2.13;;;0.93;;
53503;SDS011;39387;50.998;22.340;2022-07-21T11:49:37;0.85;;;0.85;;
53503;SDS011;39387;50.998;22.340;2022-07-21T11:52:06;1.33;;;1.10;;
53503;SDS011;39387;50.998;22.340;2022-07-21T11:54:34;1.67;;;1.20;;
53503;SDS011;39387;50.998;22.340;2022-07-21T11:57:04;1.02;;;0.93;;
53503;SDS011;39387;50.998;22.340;2022-07-21T11:59:33;0.90;;;0.90;;
53503;SDS011;39387;50.998;22.340;2022-07-21T12:02:04;1.10;;;1.00;;
53503;SDS011;39387;50.998;22.340;2022-07-21T12:04:34;1.40;;;0.90;;
53503;SDS011;39387;50.998;22.340;2022-07-21T12:07:13;3.88;;;0.90;;
53503;SDS011;39387;50.998;22.340;2022-07-21T12:09:44;1.60;;;0.95;;
53503;SDS011;39387;50.998;22.340;2022-07-21T12:12:13;3.85;;;1.20;;
53503;SDS011;39387;50.998;22.340;2022-07-21T12:14:42;1.95;;;1.60;;
53503;SDS011;39387;50.998;22.340;2022-07-21T12:17:17;1.10;;;1.00;;
53503;SDS011;39387;50.998;22.340;2022-07-21T12:19:58;2.15;;;1.15;;
53503;SDS011;39387;50.998;22.340;2022-07-21T12:22:36;2.45;;;1.30;;
53503;SDS011;39387;50.998;22.340;2022-07-21T12:25:05;2.03;;;1.00;;
53503;SDS011;39387;50.998;22.340;2022-07-21T12:27:34;1.73;;;1.02;;
53503;SDS011;39387;50.998;22.340;2022-07-21T12:30:03;1.10;;;1.00;;
53503;SDS011;39387;50.998;22.340;2022-07-21T12:32:39;1.65;;;0.98;;
53503;SDS011;39387;50.998;22.340;2022-07-21T12:35:18;1.10;;;1.00;;
53503;SDS011;39387;50.998;22.340;2022-07-21T12:37:57;2.38;;;1.13;;
53503;SDS011;39387;50.998;22.340;2022-07-21T12:40:30;1.83;;;1.05;;
53503;SDS011;39387;50.998;22.340;2022-07-21T12:43:05;1.10;;;1.00;;
53503;SDS011;39387;50.998;22.340;2022-07-21T12:45:54;1.95;;;1.20;;
53503;SDS011;39387;50.998;22.340;2022-07-21T12:48:25;1.25;;;1.10;;
53503;SDS011;39387;50.998;22.340;2022-07-21T12:51:00;1.33;;;1.23;;
53503;SDS011;39387;50.998;22.340;2022-07-21T12:53:29;1.20;;;1.10;;
53503;SDS011;39387;50.998;22.340;2022-07-21T12:55:57;1.00;;;0.90;;
53503;SDS011;39387;50.998;22.340;2022-07-21T12:58:25;1.10;;;1.00;;
53503;SDS011;39387;50.998;22.340;2022-07-21T13:00:52;1.58;;;1.00;;
53503;SDS011;39387;50.998;22.340;2022-07-21T13:03:20;1.30;;;1.20;;
53503;SDS011;39387;50.998;22.340;2022-07-21T13:05:49;1.20;;;1.10;;
53503;SDS011;39387;50.998;22.340;2022-07-21T13:08:16;1.85;;;1.20;;
53503;SDS011;39387;50.998;22.340;2022-07-21T13:10:44;1.52;;;1.30;;
53503;SDS011;39387;50.998;22.340;2022-07-21T13:13:11;1.15;;;1.05;;
53503;SDS011;39387;50.998;22.340;2022-07-21T13:15:39;1.45;;;1.00;;
53503;SDS011;39387;50.998;22.340;2022-07-21T13:18:06;1.58;;;1.35;;
53503;SDS011;39387;50.998;22.340;2022-07-21T13:20:33;1.58;;;1.05;;
53503;SDS011;39387;50.998;22.340;2022-07-21T13:23:02;2.35;;;1.23;;
53503;SDS011;39387;50.998;22.340;2022-07-21T13:25:30;1.38;;;1.20;;
53503;SDS011;39387;50.998;22.340;2022-07-21T13:27:57;2.13;;;1.30;;
53503;SDS011;39387;50.998;22.340;2022-07-21T13:30:24;1.40;;;1.30;;
53503;SDS011;39387;50.998;22.340;2022-07-21T13:32:52;2.72;;;1.17;;
53503;SDS011;39387;50.998;22.340;2022-07-21T13:35:19;1.77;;;1.08;;
53503;SDS011;39387;50.998;22.340;2022-07-21T13:37:46;1.95;;;1.23;;
53503;SDS011;39387;50.998;22.340;2022-07-21T13:40:15;1.30;;;1.20;;
53503;SDS011;39387;50.998;22.340;2022-07-21T13:42:43;1.50;;;1.20;;
53503;SDS011;39387;50.998;22.340;2022-07-21T13:45:10;1.75;;;1.10;;
53503;SDS011;39387;50.998;22.340;2022-07-21T13:47:39;1.08;;;1.00;;
53503;SDS011;39387;50.998;22.340;2022-07-21T13:50:07;1.83;;;1.10;;
53503;SDS011;39387;50.998;22.340;2022-07-21T13:52:34;1.38;;;1.27;;
53503;SDS011;39387;50.998;22.340;2022-07-21T13:55:03;1.42;;;1.15;;
53503;SDS011;39387;50.998;22.340;2022-07-21T13:57:32;1.83;;;1.20;;
53503;SDS011;39387;50.998;22.340;2022-07-21T13:59:59;15.05;;;2.15;;
53503;SDS011;39387;50.998;22.340;2022-07-21T14:02:27;5.40;;;1.80;;
53503;SDS011;39387;50.998;22.340;2022-07-21T14:04:54;4.85;;;1.40;;
53503;SDS011;39387;50.998;22.340;2022-07-21T14:07:22;3.03;;;1.30;;
53503;SDS011;39387;50.998;22.340;2022-07-21T14:09:49;1.23;;;1.13;;
53503;SDS011;39387;50.998;22.340;2022-07-21T14:12:17;1.48;;;1.20;;
53503;SDS011;39387;50.998;22.340;2022-07-21T14:14:46;1.23;;;1.13;;
53503;SDS011;39387;50.998;22.340;2022-07-21T14:17:13;1.27;;;1.17;;
53503;SDS011;39387;50.998;22.340;2022-07-21T14:19:41;1.38;;;1.27;;
53503;SDS011;39387;50.998;22.340;2022-07-21T14:22:09;1.90;;;1.55;;
53503;SDS011;39387;50.998;22.340;2022-07-21T14:24:37;1.58;;;1.40;;
53503;SDS011;39387;50.998;22.340;2022-07-21T14:27:21;1.77;;;1.40;;
53503;SDS011;39387;50.998;22.340;2022-07-21T14:29:50;1.42;;;1.23;;
53503;SDS011;39387;50.998;22.340;2022-07-21T14:32:18;1.50;;;1.40;;
53503;SDS011;39387;50.998;22.340;2022-07-21T14:34:47;1.40;;;1.10;;
53503;SDS011;39387;50.998;22.340;2022-07-21T14:37:15;1.33;;;1.23;;
53503;SDS011;39387;50.998;22.340;2022-07-21T14:39:43;1.48;;;1.08;;
53503;SDS011;39387;50.998;22.340;2022-07-21T14:42:11;2.08;;;1.30;;
53503;SDS011;39387;50.998;22.340;2022-07-21T14:44:38;1.85;;;1.40;;
53503;SDS011;39387;50.998;22.340;2022-07-21T14:47:09;1.77;;;1.40;;
53503;SDS011;39387;50.998;22.340;2022-07-21T14:49:36;10.20;;;1.67;;
53503;SDS011;39387;50.998;22.340;2022-07-21T14:52:04;3.50;;;1.77;;
53503;SDS011;39387;50.998;22.340;2022-07-21T14:54:31;2.72;;;1.35;;
53503;SDS011;39387;50.998;22.340;2022-07-21T14:56:59;1.92;;;1.33;;
53503;SDS011;39387;50.998;22.340;2022-07-21T14:59:26;1.95;;;1.42;;
53503;SDS011;39387;50.998;22.340;2022-07-21T15:01:53;3.50;;;1.40;;
53503;SDS011;39387;50.998;22.340;2022-07-21T15:04:22;15.75;;;2.40;;